createdAt,value
2023-11-21T00:02:22.295Z,81.26
2023-11-21T00:05:15.174Z,81.11
2023-11-21T00:08:01.496Z,81.19
2023-11-21T00:10:47.441Z,81.52
2023-11-21T00:13:34.154Z,81.67
2023-11-21T00:16:20.403Z,81.80
2023-11-21T00:19:06.746Z,82.17
2023-11-21T00:21:52.616Z,82.53
2023-11-21T00:24:38.776Z,82.79
2023-11-21T00:27:24.616Z,83.11
2023-11-21T00:30:11.149Z,83.18
2023-11-21T00:32:57.761Z,83.21
2023-11-21T00:35:44.117Z,83.19
2023-11-21T00:38:30.119Z,83.39
2023-11-21T00:41:17.945Z,83.74
2023-11-21T00:44:04.087Z,83.99
2023-11-21T00:46:51.826Z,84.40
2023-11-21T00:49:40.625Z,84.53
2023-11-21T00:52:27.252Z,84.42
2023-11-21T00:55:13.441Z,84.48
2023-11-21T00:58:00.912Z,84.48
2023-11-21T01:00:46.809Z,84.39
2023-11-21T01:03:33.251Z,84.25
2023-11-21T01:06:20.854Z,84.54
2023-11-21T01:09:09.715Z,84.53
2023-11-21T01:11:55.828Z,84.49
2023-11-21T01:14:41.995Z,84.42
2023-11-21T01:17:28.475Z,84.43
2023-11-21T01:20:15.376Z,84.27
2023-11-21T01:23:01.642Z,84.20
2023-11-21T01:25:47.975Z,84.11
2023-11-21T01:28:34.101Z,83.95
2023-11-21T01:31:21.680Z,83.72
2023-11-21T01:34:08.342Z,83.74
2023-11-21T01:36:54.764Z,83.88
2023-11-21T01:39:41.335Z,83.99
2023-11-21T01:42:28.147Z,83.84
2023-11-21T01:45:15.993Z,83.79
2023-11-21T01:48:04.480Z,83.85
2023-11-21T01:50:50.933Z,83.72
2023-11-21T01:53:37.896Z,83.72
2023-11-21T01:56:24.775Z,83.76
2023-11-21T01:59:11.564Z,83.63
2023-11-21T02:01:57.866Z,83.78
2023-11-21T02:04:44.827Z,83.70
2023-11-21T02:07:31.326Z,83.71
2023-11-21T02:10:18.338Z,83.89
2023-11-21T02:13:05.448Z,84.08
2023-11-21T02:15:53.580Z,84.40
2023-11-21T02:18:40.931Z,84.56
2023-11-21T02:21:28.558Z,84.70
2023-11-21T02:24:14.572Z,84.63
2023-11-21T02:27:01.251Z,84.65
2023-11-21T02:29:47.436Z,84.57
2023-11-21T02:32:33.410Z,84.38
2023-11-21T02:35:19.445Z,84.40
2023-11-21T02:38:05.310Z,84.37
2023-11-21T02:40:51.418Z,84.24
2023-11-21T02:43:37.287Z,84.22
2023-11-21T02:46:23.316Z,84.37
2023-11-21T02:49:11.419Z,84.39
2023-11-21T02:51:57.755Z,84.30
2023-11-21T02:54:43.955Z,84.30
2023-11-21T02:57:30.204Z,84.41
2023-11-21T03:00:16.743Z,84.73
2023-11-21T03:03:02.744Z,84.78
2023-11-21T03:05:48.939Z,85.34
2023-11-21T03:08:35.803Z,85.94
2023-11-21T03:11:22.633Z,86.32
2023-11-21T03:14:08.733Z,87.01
2023-11-21T03:16:54.566Z,87.14
2023-11-21T03:19:45.478Z,87.53
2023-11-21T03:22:31.659Z,87.82
2023-11-21T03:25:19.037Z,88.25
2023-11-21T03:28:05.378Z,88.78
2023-11-21T03:30:51.640Z,89.40
2023-11-21T03:33:37.551Z,90.27
2023-11-21T03:36:23.532Z,90.78
2023-11-21T03:39:09.491Z,91.12
2023-11-21T03:41:55.538Z,91.31
2023-11-21T03:44:41.997Z,91.10
2023-11-21T03:47:29.337Z,91.14
2023-11-21T03:50:15.547Z,91.18
2023-11-21T03:53:03.466Z,91.09
2023-11-21T03:55:51.216Z,91.02
2023-11-21T03:58:37.471Z,91.04
2023-11-21T04:01:24.298Z,90.95
2023-11-21T04:04:10.421Z,90.62
2023-11-21T04:06:57.470Z,90.61
2023-11-21T04:09:43.327Z,90.50
2023-11-21T04:12:29.281Z,90.57
2023-11-21T04:15:15.599Z,90.39
2023-11-21T04:18:01.902Z,90.33
2023-11-21T04:20:50.068Z,90.32
2023-11-21T04:23:36.832Z,90.24
2023-11-21T04:26:22.937Z,90.36
2023-11-21T04:29:09.014Z,90.51
2023-11-21T04:31:54.955Z,90.48
2023-11-21T04:34:40.884Z,90.13
2023-11-21T04:37:27.536Z,90.21
2023-11-21T04:40:13.501Z,90.26
2023-11-21T04:42:59.722Z,90.49
2023-11-21T04:45:45.699Z,90.53
2023-11-21T04:48:32.053Z,90.49
2023-11-21T04:51:18.865Z,90.69
2023-11-21T04:54:06.914Z,90.83
2023-11-21T04:56:52.915Z,90.52
2023-11-21T04:59:39.106Z,90.35
2023-11-21T05:02:33.604Z,90.33
2023-11-21T05:05:22.067Z,90.60
2023-11-21T05:08:07.888Z,90.21
2023-11-21T05:10:54.703Z,90.46
2023-11-21T05:13:40.968Z,90.54
2023-11-21T05:16:28.967Z,90.65
2023-11-21T05:19:15.338Z,91.51
2023-11-21T05:22:01.823Z,92.23
2023-11-21T05:24:48.076Z,92.71
2023-11-21T05:27:34.369Z,92.65
2023-11-21T05:30:20.599Z,92.69
2023-11-21T05:33:06.934Z,92.41
2023-11-21T05:35:53.568Z,92.29
2023-11-21T05:38:40.074Z,92.07
2023-11-21T05:41:26.941Z,91.43
2023-11-21T05:44:15.552Z,91.62
2023-11-21T05:47:01.947Z,90.36
2023-11-21T05:49:51.600Z,88.83
2023-11-21T05:52:38.579Z,86.81
2023-11-21T05:55:27.212Z,84.09
2023-11-21T05:58:15.035Z,79.72
2023-11-21T06:01:01.321Z,76.94
2023-11-21T06:03:47.307Z,75.95
2023-11-21T06:06:33.693Z,74.38
2023-11-21T06:09:20.332Z,74.53
2023-11-21T06:12:06.986Z,74.72
2023-11-21T06:14:52.986Z,73.51
2023-11-21T06:17:39.257Z,73.91
2023-11-21T06:20:25.524Z,73.93
2023-11-21T06:23:12.051Z,73.99
2023-11-21T06:25:58.479Z,73.78
2023-11-21T06:28:44.972Z,73.83
2023-11-21T06:31:31.538Z,73.60
2023-11-21T06:34:17.555Z,73.56
2023-11-21T06:37:03.575Z,73.74
2023-11-21T06:39:53.356Z,73.95
2023-11-21T06:42:39.724Z,73.94
2023-11-21T06:45:25.697Z,73.64
2023-11-21T06:48:12.005Z,73.46
2023-11-21T06:50:58.604Z,74.04
2023-11-21T06:53:45.987Z,73.91
2023-11-21T06:56:32.259Z,74.50
2023-11-21T06:59:18.091Z,74.77
2023-11-21T07:02:06.072Z,75.08
2023-11-21T07:04:52.493Z,74.83
2023-11-21T07:07:39.893Z,74.51
2023-11-21T07:10:26.100Z,75.23
2023-11-21T07:13:13.714Z,75.68
2023-11-21T07:16:00.743Z,75.72
2023-11-21T07:18:47.436Z,75.71
2023-11-21T07:21:37.553Z,75.42
2023-11-21T07:24:27.733Z,75.42
2023-11-21T07:27:14.090Z,74.93
2023-11-21T07:30:00.168Z,75.19
2023-11-21T07:32:49.151Z,75.60
2023-11-21T07:35:35.376Z,75.06
2023-11-21T07:38:21.900Z,74.98
2023-11-21T07:41:19.252Z,75.47
2023-11-21T07:44:12.209Z,75.83
2023-11-21T07:46:59.020Z,75.79
2023-11-21T07:49:46.162Z,75.23
2023-11-21T07:52:32.923Z,75.05
2023-11-21T07:55:19.302Z,75.48
2023-11-21T07:58:05.644Z,75.55
2023-11-21T08:00:52.084Z,75.33
2023-11-21T08:03:38.478Z,75.79
2023-11-21T08:06:26.874Z,75.17
2023-11-21T08:09:13.734Z,74.87
2023-11-21T08:12:01.852Z,74.07
2023-11-21T08:14:48.352Z,74.16
2023-11-21T08:17:34.598Z,73.54
2023-11-21T08:20:21.315Z,73.57
2023-11-21T08:23:07.777Z,74.05
2023-11-21T08:25:55.030Z,74.35
2023-11-21T08:28:41.637Z,74.64
2023-11-21T08:31:28.029Z,74.53
2023-11-21T08:34:15.616Z,74.03
2023-11-21T08:37:01.757Z,73.52
2023-11-21T08:39:49.563Z,73.50
2023-11-21T08:42:35.572Z,72.82
2023-11-21T08:45:23.570Z,73.15
2023-11-21T08:48:09.916Z,73.04
2023-11-21T08:50:56.208Z,73.60
2023-11-21T08:53:42.335Z,74.54
2023-11-21T08:56:28.412Z,75.12
2023-11-21T08:59:15.616Z,75.38
2023-11-21T09:02:02.096Z,75.14
2023-11-21T09:04:48.728Z,74.82
2023-11-21T09:07:35.152Z,74.61
2023-11-21T09:10:22.017Z,74.62
2023-11-21T09:13:11.391Z,74.62
2023-11-21T09:15:57.560Z,74.30
2023-11-21T09:18:44.234Z,74.56
2023-11-21T09:21:30.515Z,74.94
2023-11-21T09:24:16.587Z,75.31
2023-11-21T09:27:02.617Z,75.68
2023-11-21T09:29:48.962Z,75.94
2023-11-21T09:32:36.389Z,76.04
2023-11-21T09:35:22.833Z,76.08
2023-11-21T09:38:12.308Z,76.17
2023-11-21T09:40:59.486Z,75.69
2023-11-21T09:43:48.620Z,75.88
2023-11-21T09:46:34.840Z,76.42
2023-11-21T09:49:26.564Z,76.69
2023-11-21T09:52:19.415Z,76.79
2023-11-21T09:55:07.018Z,76.88
2023-11-21T09:57:55.413Z,76.79
2023-11-21T10:00:47.937Z,76.08
2023-11-21T10:03:37.981Z,76.18
2023-11-21T10:06:27.919Z,76.78
2023-11-21T10:09:15.396Z,77.08
2023-11-21T10:12:04.406Z,77.17
2023-11-21T10:14:53.738Z,77.44
2023-11-21T10:17:44.626Z,77.39
2023-11-21T10:20:31.844Z,77.62
2023-11-21T10:23:18.702Z,78.07
2023-11-21T10:26:11.312Z,78.08
2023-11-21T10:29:06.344Z,78.24
2023-11-21T10:31:54.115Z,78.11
2023-11-21T10:34:42.573Z,78.38
2023-11-21T10:37:29.218Z,78.48
2023-11-21T10:40:15.950Z,78.44
2023-11-21T10:43:12.037Z,77.57
2023-11-21T10:46:01.047Z,77.46
2023-11-21T10:48:47.897Z,77.59
2023-11-21T10:51:34.377Z,77.28
2023-11-21T10:54:29.872Z,77.39
2023-11-21T10:57:20.471Z,77.65
2023-11-21T11:00:07.934Z,76.78
2023-11-21T11:02:57.924Z,75.56
2023-11-21T11:05:53.771Z,75.10
2023-11-21T11:08:41.261Z,75.15
2023-11-21T11:11:27.807Z,75.56
2023-11-21T11:14:15.241Z,75.74
2023-11-21T11:17:03.327Z,75.69
2023-11-21T11:19:50.362Z,75.61
2023-11-21T11:22:46.885Z,75.53
2023-11-21T11:26:06.761Z,75.05
2023-11-21T11:29:12.731Z,74.95
2023-11-21T11:32:17.962Z,75.35
2023-11-21T11:35:18.408Z,76.14
2023-11-21T11:38:05.007Z,76.42
2023-11-21T11:40:55.372Z,76.26
2023-11-21T11:43:45.527Z,76.54
2023-11-21T11:46:49.058Z,76.62
2023-11-21T11:49:35.663Z,76.56
2023-11-21T11:52:45.675Z,76.22
2023-11-21T11:55:32.118Z,75.74
2023-11-21T11:58:18.711Z,76.12
2023-11-21T12:01:08.851Z,76.19
2023-11-21T12:04:24.371Z,76.31
2023-11-21T12:07:14.961Z,76.67
2023-11-21T12:10:01.289Z,77.00
2023-11-21T12:12:55.565Z,77.40
2023-11-21T12:15:43.378Z,77.31
2023-11-21T12:18:29.954Z,77.02
2023-11-21T12:21:17.643Z,76.83
2023-11-21T12:24:04.359Z,76.86
2023-11-21T12:26:50.644Z,76.56
2023-11-21T12:29:39.001Z,76.88
2023-11-21T12:32:26.752Z,76.88
2023-11-21T12:35:13.713Z,77.17
2023-11-21T12:38:00.819Z,77.12
2023-11-21T12:40:48.609Z,77.14
2023-11-21T12:43:36.416Z,77.23
2023-11-21T12:46:22.937Z,77.35
2023-11-21T12:49:09.498Z,77.21
2023-11-21T12:51:56.082Z,77.29
2023-11-21T12:54:42.744Z,77.52
2023-11-21T12:57:29.359Z,77.38
2023-11-21T13:00:28.332Z,77.19
2023-11-21T13:03:18.388Z,76.88
2023-11-21T13:06:06.238Z,76.68
2023-11-21T13:08:53.358Z,76.86
2023-11-21T13:11:42.045Z,77.21
2023-11-21T13:14:33.205Z,77.88
2023-11-21T13:17:20.179Z,77.94
2023-11-21T13:20:11.259Z,78.29
2023-11-21T13:23:00.357Z,78.58
2023-11-21T13:25:54.722Z,78.43
2023-11-21T13:28:48.601Z,78.46
2023-11-21T13:31:37.885Z,78.74
2023-11-21T13:37:15.139Z,78.63
2023-11-21T13:40:01.207Z,78.76
2023-11-21T13:42:47.274Z,78.61
2023-11-21T13:45:33.906Z,78.40
2023-11-21T13:48:23.578Z,77.82
2023-11-21T13:51:18.889Z,77.62
2023-11-21T13:54:10.401Z,77.31
2023-11-21T13:56:57.255Z,77.07
2023-11-21T13:59:45.238Z,76.76
2023-11-21T14:02:38.793Z,76.44
2023-11-21T14:05:30.519Z,76.46
2023-11-21T14:08:21.189Z,76.63
2023-11-21T14:11:08.165Z,76.58
2023-11-21T14:13:55.099Z,76.61
2023-11-21T14:16:41.447Z,76.59
2023-11-21T14:19:33.835Z,76.31
2023-11-21T14:22:21.870Z,76.66
2023-11-21T14:25:08.380Z,77.41
2023-11-21T14:27:54.971Z,77.93
2023-11-21T14:30:42.345Z,78.55
2023-11-21T14:33:28.884Z,78.72
2023-11-21T14:36:18.378Z,78.59
2023-11-21T14:39:10.460Z,78.39
2023-11-21T14:41:57.910Z,78.65
2023-11-21T14:44:44.887Z,79.24
2023-11-21T14:47:31.145Z,79.97
2023-11-21T14:50:36.364Z,80.34
2023-11-21T14:53:42.682Z,80.92
2023-11-21T14:56:34.320Z,81.35
2023-11-21T14:59:20.527Z,81.42
2023-11-21T15:02:16.815Z,81.41
2023-11-21T15:05:03.747Z,81.48
2023-11-21T15:07:51.013Z,81.29
2023-11-21T15:10:47.486Z,81.25
2023-11-21T15:13:34.254Z,81.53
2023-11-21T15:16:20.788Z,81.78
2023-11-21T15:19:08.414Z,81.75
2023-11-21T15:21:54.805Z,81.97
2023-11-21T15:24:42.993Z,82.04
2023-11-21T15:27:29.567Z,82.17
2023-11-21T15:30:17.034Z,82.49
2023-11-21T15:33:05.059Z,82.83
2023-11-21T15:35:52.238Z,82.89
2023-11-21T15:38:41.146Z,82.80
2023-11-21T15:41:27.554Z,82.34
2023-11-21T15:44:15.210Z,82.38
2023-11-21T15:47:01.822Z,82.10
2023-11-21T15:49:51.088Z,82.05
2023-11-21T15:52:39.013Z,82.18
2023-11-21T15:55:44.016Z,82.06
2023-11-21T15:58:30.930Z,81.98
2023-11-21T16:01:17.034Z,82.04
2023-11-21T16:04:04.434Z,82.24
2023-11-21T16:06:51.015Z,82.76
2023-11-21T16:09:39.210Z,83.00
2023-11-21T16:12:25.424Z,82.82
2023-11-21T16:15:13.208Z,83.01
2023-11-21T16:17:59.588Z,82.77
2023-11-21T16:20:45.624Z,82.57
2023-11-21T16:23:32.632Z,82.52
2023-11-21T16:26:19.474Z,82.14
2023-11-21T16:29:05.938Z,81.88
2023-11-21T16:31:53.540Z,81.46
2023-11-21T16:34:41.560Z,81.63
2023-11-21T16:37:28.277Z,81.89
2023-11-21T16:40:14.417Z,81.78
2023-11-21T16:43:00.764Z,81.99
2023-11-21T16:45:52.920Z,81.99
2023-11-21T16:48:39.546Z,81.40
2023-11-21T16:51:25.526Z,81.15
2023-11-21T16:54:11.874Z,81.05
2023-11-21T16:56:58.198Z,80.72
2023-11-21T16:59:44.296Z,80.59
2023-11-21T17:02:30.539Z,80.56
2023-11-21T17:05:17.025Z,80.79
2023-11-21T17:08:05.744Z,81.56
2023-11-21T17:10:51.957Z,82.06
2023-11-21T17:13:38.032Z,82.54
2023-11-21T17:16:24.176Z,82.62
2023-11-21T17:19:10.689Z,82.44
2023-11-21T17:21:58.425Z,82.42
2023-11-21T17:24:45.722Z,82.10
2023-11-21T17:27:32.122Z,82.50
2023-11-21T17:30:19.272Z,82.28
2023-11-21T17:33:05.698Z,81.90
2023-11-21T17:35:52.289Z,81.85
2023-11-21T17:38:39.286Z,81.40
2023-11-21T17:41:26.121Z,80.82
2023-11-21T17:44:13.748Z,80.64
2023-11-21T17:47:00.213Z,81.06
2023-11-21T17:49:46.913Z,81.10
2023-11-21T17:52:33.393Z,80.88
2023-11-21T17:55:19.546Z,80.42
2023-11-21T17:58:06.074Z,80.17
2023-11-21T18:00:52.366Z,80.12
2023-11-21T18:03:41.469Z,80.14
2023-11-21T18:06:27.858Z,79.95
2023-11-21T18:09:16.600Z,79.36
2023-11-21T18:12:03.404Z,79.24
2023-11-21T18:14:51.670Z,79.74
2023-11-21T18:17:38.270Z,81.09
2023-11-21T18:20:25.397Z,81.93
2023-11-21T18:23:11.821Z,83.04
2023-11-21T18:25:58.071Z,84.18
2023-11-21T18:28:44.873Z,84.93
2023-11-21T18:31:31.723Z,85.39
2023-11-21T18:34:17.865Z,85.58
2023-11-21T18:37:04.199Z,85.60
2023-11-21T18:39:50.375Z,85.28
2023-11-21T18:42:36.897Z,85.01
2023-11-21T18:45:23.530Z,85.14
2023-11-21T18:48:12.385Z,85.46
2023-11-21T18:50:58.824Z,86.00
2023-11-21T18:53:45.017Z,85.96
2023-11-21T18:56:32.262Z,85.87
2023-11-21T18:59:22.023Z,85.78
2023-11-21T19:02:14.017Z,85.64
2023-11-21T19:05:04.274Z,85.70
2023-11-21T19:07:51.564Z,85.81
2023-11-21T19:10:38.555Z,85.74
2023-11-21T19:13:25.535Z,85.58
2023-11-21T19:16:15.206Z,85.42
2023-11-21T19:19:02.647Z,85.20
2023-11-21T19:21:49.778Z,84.87
2023-11-21T19:24:35.791Z,84.47
2023-11-21T19:27:22.069Z,84.73
2023-11-21T19:30:12.252Z,85.02
2023-11-21T19:33:00.615Z,85.04
2023-11-21T19:35:46.791Z,85.23
2023-11-21T19:38:35.111Z,85.47
2023-11-21T19:41:22.927Z,85.33
2023-11-21T19:44:09.872Z,84.83
2023-11-21T19:46:56.911Z,84.76
2023-11-21T19:49:43.457Z,85.16
2023-11-21T19:52:30.230Z,85.36
2023-11-21T19:55:17.907Z,85.80
2023-11-21T19:58:04.804Z,86.27
2023-11-21T20:00:51.949Z,86.54
2023-11-21T20:03:39.953Z,86.79
2023-11-21T20:06:26.385Z,86.46
2023-11-21T20:09:12.688Z,86.19
2023-11-21T20:11:59.691Z,86.18
2023-11-21T20:14:49.493Z,85.92
2023-11-21T20:17:35.925Z,85.91
2023-11-21T20:20:22.518Z,85.67
2023-11-21T20:23:08.560Z,85.22
2023-11-21T20:25:59.268Z,84.88
2023-11-21T20:28:46.897Z,84.59
2023-11-21T20:31:33.230Z,84.46
2023-11-21T20:34:20.914Z,84.51
2023-11-21T20:37:07.856Z,84.26
2023-11-21T20:39:54.100Z,84.13
2023-11-21T20:42:43.440Z,83.96
2023-11-21T20:45:31.260Z,84.50
2023-11-21T20:48:17.845Z,84.81
2023-11-21T20:51:05.298Z,85.22
2023-11-21T20:53:51.575Z,85.42
2023-11-21T20:56:38.138Z,85.74
2023-11-21T20:59:24.484Z,85.89
2023-11-21T21:02:11.180Z,86.16
2023-11-21T21:04:57.995Z,86.38
2023-11-21T21:07:44.328Z,86.67
2023-11-21T21:10:30.714Z,86.67
2023-11-21T21:13:18.887Z,86.64
2023-11-21T21:16:05.537Z,86.36
2023-11-21T21:18:53.494Z,86.53
2023-11-21T21:21:40.072Z,86.81
2023-11-21T21:24:26.251Z,86.92
2023-11-21T21:27:12.201Z,86.93
2023-11-21T21:29:58.564Z,86.79
2023-11-21T21:32:44.853Z,86.65
2023-11-21T21:35:31.011Z,86.68
2023-11-21T21:38:17.642Z,86.48
2023-11-21T21:43:47.120Z,86.42
2023-11-21T21:46:34.582Z,86.51
2023-11-21T21:49:21.592Z,86.75
2023-11-21T21:52:07.865Z,87.36
2023-11-21T21:54:54.521Z,87.56
2023-11-21T21:57:42.424Z,87.69
2023-11-21T22:00:29.010Z,87.69
2023-11-21T22:03:16.389Z,87.63
2023-11-21T22:06:03.022Z,87.62
2023-11-21T22:08:49.627Z,87.77
2023-11-21T22:11:36.493Z,87.77
2023-11-21T22:14:24.205Z,87.67
2023-11-21T22:17:11.419Z,87.82
2023-11-21T22:19:57.887Z,87.82
2023-11-21T22:22:44.351Z,87.97
2023-11-21T22:25:30.546Z,88.17
2023-11-21T22:28:17.265Z,88.24
2023-11-21T22:31:03.736Z,88.27
2023-11-21T22:33:49.919Z,88.10
2023-11-21T22:36:36.057Z,88.23
2023-11-21T22:39:22.440Z,88.55
2023-11-21T22:42:09.410Z,88.78
2023-11-21T22:44:55.980Z,88.97
2023-11-21T22:47:42.699Z,89.21
2023-11-21T22:50:29.304Z,89.49
2023-11-21T22:53:16.113Z,89.62
2023-11-21T22:56:03.008Z,89.58
2023-11-21T22:58:50.066Z,89.79
2023-11-21T23:01:36.612Z,89.51
2023-11-21T23:04:23.129Z,89.53
2023-11-21T23:07:10.538Z,89.65
2023-11-21T23:09:56.970Z,89.63
2023-11-21T23:12:43.130Z,89.64
2023-11-21T23:15:29.466Z,89.78
2023-11-21T23:18:16.076Z,89.95
2023-11-21T23:21:02.967Z,90.15
2023-11-21T23:23:49.226Z,90.33
2023-11-21T23:26:35.960Z,90.74
2023-11-21T23:29:24.410Z,90.96
2023-11-21T23:32:13.124Z,91.94
2023-11-21T23:35:00.525Z,92.30
2023-11-21T23:37:46.969Z,92.96
2023-11-21T23:40:34.203Z,93.70
2023-11-21T23:43:20.705Z,93.92
2023-11-21T23:46:07.243Z,94.06
2023-11-21T23:48:54.907Z,94.36
2023-11-21T23:51:41.671Z,94.62
2023-11-21T23:54:28.126Z,95.07
2023-11-21T23:57:14.426Z,95.46
